sensor_id;sensor_type;location;lat;lon;timestamp;P1;durP1;ratioP1;P2;durP2;ratioP2
64403;SDS011;50726;54.912;-8.392;2023-02-11T00:01:26;103.25;;;80.55;;
64403;SDS011;50726;54.912;-8.392;2023-02-11T00:03:57;105.93;;;83.95;;
64403;SDS011;50726;54.912;-8.392;2023-02-11T00:06:24;96.70;;;78.13;;
64403;SDS011;50726;54.912;-8.392;2023-02-11T00:08:52;123.70;;;79.65;;
64403;SDS011;50726;54.912;-8.392;2023-02-11T00:11:19;137.43;;;79.95;;
64403;SDS011;50726;54.912;-8.392;2023-02-11T00:13:46;99.90;;;77.57;;
64403;SDS011;50726;54.912;-8.392;2023-02-11T00:16:14;104.85;;;74.50;;
64403;SDS011;50726;54.912;-8.392;2023-02-11T00:18:41;106.97;;;77.57;;
64403;SDS011;50726;54.912;-8.392;2023-02-11T00:21:08;107.07;;;78.75;;
64403;SDS011;50726;54.912;-8.392;2023-02-11T00:23:36;103.05;;;83.70;;
64403;SDS011;50726;54.912;-8.392;2023-02-11T00:26:03;102.25;;;84.55;;
64403;SDS011;50726;54.912;-8.392;2023-02-11T00:28:29;109.35;;;81.88;;
64403;SDS011;50726;54.912;-8.392;2023-02-11T00:30:55;105.55;;;82.28;;
64403;SDS011;50726;54.912;-8.392;2023-02-11T00:33:22;105.78;;;83.57;;
64403;SDS011;50726;54.912;-8.392;2023-02-11T00:35:48;100.35;;;82.60;;
64403;SDS011;50726;54.912;-8.392;2023-02-11T00:38:14;120.97;;;84.70;;
64403;SDS011;50726;54.912;-8.392;2023-02-11T00:40:40;113.90;;;85.85;;
64403;SDS011;50726;54.912;-8.392;2023-02-11T00:43:06;100.85;;;86.65;;
64403;SDS011;50726;54.912;-8.392;2023-02-11T00:45:31;111.10;;;88.72;;
64403;SDS011;50726;54.912;-8.392;2023-02-11T00:47:57;126.18;;;92.68;;
64403;SDS011;50726;54.912;-8.392;2023-02-11T00:50:23;121.68;;;91.38;;
64403;SDS011;50726;54.912;-8.392;2023-02-11T00:52:49;112.20;;;87.30;;
64403;SDS011;50726;54.912;-8.392;2023-02-11T00:55:16;105.80;;;87.40;;
64403;SDS011;50726;54.912;-8.392;2023-02-11T00:57:42;114.97;;;87.22;;
64403;SDS011;50726;54.912;-8.392;2023-02-11T01:00:08;104.28;;;89.00;;
64403;SDS011;50726;54.912;-8.392;2023-02-11T01:02:35;110.20;;;92.90;;
64403;SDS011;50726;54.912;-8.392;2023-02-11T01:05:01;110.57;;;87.95;;
64403;SDS011;50726;54.912;-8.392;2023-02-11T01:07:27;106.45;;;89.22;;
64403;SDS011;50726;54.912;-8.392;2023-02-11T01:09:54;111.22;;;89.47;;
64403;SDS011;50726;54.912;-8.392;2023-02-11T01:12:20;121.97;;;91.13;;
64403;SDS011;50726;54.912;-8.392;2023-02-11T01:14:46;119.80;;;93.90;;
64403;SDS011;50726;54.912;-8.392;2023-02-11T01:17:11;116.82;;;92.97;;
64403;SDS011;50726;54.912;-8.392;2023-02-11T01:19:37;115.43;;;97.35;;
64403;SDS011;50726;54.912;-8.392;2023-02-11T01:22:03;107.82;;;92.72;;
64403;SDS011;50726;54.912;-8.392;2023-02-11T01:24:29;110.50;;;94.20;;
64403;SDS011;50726;54.912;-8.392;2023-02-11T01:26:55;105.82;;;93.43;;
64403;SDS011;50726;54.912;-8.392;2023-02-11T01:29:21;107.65;;;92.55;;
64403;SDS011;50726;54.912;-8.392;2023-02-11T01:31:46;109.38;;;97.65;;
64403;SDS011;50726;54.912;-8.392;2023-02-11T01:34:12;112.93;;;89.65;;
64403;SDS011;50726;54.912;-8.392;2023-02-11T01:36:39;109.78;;;92.45;;
64403;SDS011;50726;54.912;-8.392;2023-02-11T01:39:05;114.65;;;91.78;;
64403;SDS011;50726;54.912;-8.392;2023-02-11T01:41:33;114.78;;;91.60;;
64403;SDS011;50726;54.912;-8.392;2023-02-11T01:46:51;112.93;;;90.15;;
64403;SDS011;50726;54.912;-8.392;2023-02-11T01:49:17;115.53;;;87.93;;
64403;SDS011;50726;54.912;-8.392;2023-02-11T01:52:04;112.32;;;90.10;;
64403;SDS011;50726;54.912;-8.392;2023-02-11T01:54:35;121.05;;;91.95;;
64403;SDS011;50726;54.912;-8.392;2023-02-11T01:57:23;104.85;;;88.72;;
64403;SDS011;50726;54.912;-8.392;2023-02-11T02:05:42;110.03;;;94.57;;
64403;SDS011;50726;54.912;-8.392;2023-02-11T02:10:44;104.15;;;92.35;;
64403;SDS011;50726;54.912;-8.392;2023-02-11T02:13:12;104.32;;;92.88;;
64403;SDS011;50726;54.912;-8.392;2023-02-11T02:15:39;108.93;;;93.50;;
64403;SDS011;50726;54.912;-8.392;2023-02-11T02:29:15;112.03;;;95.13;;
64403;SDS011;50726;54.912;-8.392;2023-02-11T02:40:45;108.85;;;97.13;;
64403;SDS011;50726;54.912;-8.392;2023-02-11T02:43:15;106.53;;;93.32;;
64403;SDS011;50726;54.912;-8.392;2023-02-11T02:45:41;122.65;;;94.88;;
64403;SDS011;50726;54.912;-8.392;2023-02-11T02:48:21;114.07;;;94.80;;
64403;SDS011;50726;54.912;-8.392;2023-02-11T02:50:53;108.32;;;94.55;;
64403;SDS011;50726;54.912;-8.392;2023-02-11T02:59:26;133.57;;;99.78;;
64403;SDS011;50726;54.912;-8.392;2023-02-11T03:01:51;115.32;;;103.47;;
64403;SDS011;50726;54.912;-8.392;2023-02-11T03:07:16;119.35;;;101.00;;
64403;SDS011;50726;54.912;-8.392;2023-02-11T03:09:57;132.23;;;101.47;;
64403;SDS011;50726;54.912;-8.392;2023-02-11T03:12:30;122.07;;;103.57;;
64403;SDS011;50726;54.912;-8.392;2023-02-11T03:14:58;112.90;;;100.97;;
64403;SDS011;50726;54.912;-8.392;2023-02-11T03:17:26;124.68;;;101.85;;
64403;SDS011;50726;54.912;-8.392;2023-02-11T03:19:56;126.85;;;98.07;;
64403;SDS011;50726;54.912;-8.392;2023-02-11T03:22:25;124.57;;;97.05;;
64403;SDS011;50726;54.912;-8.392;2023-02-11T03:24:58;114.63;;;100.00;;
64403;SDS011;50726;54.912;-8.392;2023-02-11T03:27:33;113.57;;;95.28;;
64403;SDS011;50726;54.912;-8.392;2023-02-11T03:32:38;107.25;;;95.60;;
64403;SDS011;50726;54.912;-8.392;2023-02-11T03:37:42;106.95;;;95.47;;
64403;SDS011;50726;54.912;-8.392;2023-02-11T03:40:16;106.60;;;95.05;;
64403;SDS011;50726;54.912;-8.392;2023-02-11T03:43:06;107.68;;;96.65;;
64403;SDS011;50726;54.912;-8.392;2023-02-11T03:45:36;114.30;;;102.72;;
64403;SDS011;50726;54.912;-8.392;2023-02-11T03:48:05;103.63;;;93.18;;
64403;SDS011;50726;54.912;-8.392;2023-02-11T03:50:37;105.05;;;93.93;;
64403;SDS011;50726;54.912;-8.392;2023-02-11T03:53:05;104.47;;;94.10;;
64403;SDS011;50726;54.912;-8.392;2023-02-11T03:55:34;105.07;;;93.90;;
64403;SDS011;50726;54.912;-8.392;2023-02-11T03:58:04;106.28;;;92.38;;
64403;SDS011;50726;54.912;-8.392;2023-02-11T04:00:31;108.50;;;95.10;;
64403;SDS011;50726;54.912;-8.392;2023-02-11T04:02:58;108.18;;;95.47;;
64403;SDS011;50726;54.912;-8.392;2023-02-11T04:05:24;105.78;;;94.25;;
64403;SDS011;50726;54.912;-8.392;2023-02-11T04:07:49;112.75;;;92.95;;
64403;SDS011;50726;54.912;-8.392;2023-02-11T04:10:15;105.30;;;94.32;;
64403;SDS011;50726;54.912;-8.392;2023-02-11T04:12:41;115.07;;;95.85;;
64403;SDS011;50726;54.912;-8.392;2023-02-11T04:15:06;124.38;;;95.75;;
64403;SDS011;50726;54.912;-8.392;2023-02-11T04:17:33;105.32;;;93.45;;
64403;SDS011;50726;54.912;-8.392;2023-02-11T04:19:59;114.68;;;100.00;;
64403;SDS011;50726;54.912;-8.392;2023-02-11T04:22:24;109.07;;;96.95;;
64403;SDS011;50726;54.912;-8.392;2023-02-11T04:24:50;111.35;;;98.15;;
64403;SDS011;50726;54.912;-8.392;2023-02-11T04:27:16;125.90;;;98.55;;
64403;SDS011;50726;54.912;-8.392;2023-02-11T04:29:41;117.78;;;98.65;;
64403;SDS011;50726;54.912;-8.392;2023-02-11T04:32:08;112.88;;;99.15;;
64403;SDS011;50726;54.912;-8.392;2023-02-11T04:34:35;128.70;;;102.70;;
64403;SDS011;50726;54.912;-8.392;2023-02-11T04:37:01;125.63;;;99.90;;
64403;SDS011;50726;54.912;-8.392;2023-02-11T04:39:26;120.15;;;98.38;;
64403;SDS011;50726;54.912;-8.392;2023-02-11T04:41:52;141.15;;;100.70;;
64403;SDS011;50726;54.912;-8.392;2023-02-11T04:44:18;114.82;;;102.40;;
64403;SDS011;50726;54.912;-8.392;2023-02-11T04:46:44;120.18;;;100.97;;
64403;SDS011;50726;54.912;-8.392;2023-02-11T04:49:13;133.73;;;105.68;;
64403;SDS011;50726;54.912;-8.392;2023-02-11T04:51:40;119.90;;;103.68;;
64403;SDS011;50726;54.912;-8.392;2023-02-11T04:54:06;118.75;;;105.78;;
64403;SDS011;50726;54.912;-8.392;2023-02-11T04:56:32;115.47;;;103.13;;
64403;SDS011;50726;54.912;-8.392;2023-02-11T04:58:58;112.97;;;100.97;;
64403;SDS011;50726;54.912;-8.392;2023-02-11T05:01:24;130.80;;;105.05;;
64403;SDS011;50726;54.912;-8.392;2023-02-11T05:03:50;138.30;;;105.82;;
64403;SDS011;50726;54.912;-8.392;2023-02-11T05:06:16;116.97;;;103.47;;
64403;SDS011;50726;54.912;-8.392;2023-02-11T05:08:42;119.97;;;101.45;;
64403;SDS011;50726;54.912;-8.392;2023-02-11T05:11:13;129.00;;;100.68;;
64403;SDS011;50726;54.912;-8.392;2023-02-11T05:13:41;135.13;;;102.68;;
64403;SDS011;50726;54.912;-8.392;2023-02-11T05:16:07;128.75;;;102.45;;
64403;SDS011;50726;54.912;-8.392;2023-02-11T05:18:33;146.77;;;103.82;;
64403;SDS011;50726;54.912;-8.392;2023-02-11T05:20:58;156.05;;;102.38;;
64403;SDS011;50726;54.912;-8.392;2023-02-11T05:23:24;142.75;;;103.85;;
64403;SDS011;50726;54.912;-8.392;2023-02-11T05:25:49;124.90;;;105.38;;
64403;SDS011;50726;54.912;-8.392;2023-02-11T05:28:15;130.82;;;105.68;;
64403;SDS011;50726;54.912;-8.392;2023-02-11T05:30:41;127.05;;;100.78;;
64403;SDS011;50726;54.912;-8.392;2023-02-11T05:33:07;116.00;;;103.50;;
64403;SDS011;50726;54.912;-8.392;2023-02-11T05:35:32;118.93;;;106.38;;
64403;SDS011;50726;54.912;-8.392;2023-02-11T05:37:58;119.45;;;106.88;;
64403;SDS011;50726;54.912;-8.392;2023-02-11T05:40:24;126.07;;;111.28;;
64403;SDS011;50726;54.912;-8.392;2023-02-11T05:42:50;122.78;;;109.70;;
64403;SDS011;50726;54.912;-8.392;2023-02-11T05:45:15;122.35;;;109.70;;
64403;SDS011;50726;54.912;-8.392;2023-02-11T05:47:41;125.63;;;112.43;;
64403;SDS011;50726;54.912;-8.392;2023-02-11T05:50:07;128.40;;;114.10;;
64403;SDS011;50726;54.912;-8.392;2023-02-11T05:52:32;123.63;;;110.63;;
64403;SDS011;50726;54.912;-8.392;2023-02-11T05:54:58;135.70;;;116.68;;
64403;SDS011;50726;54.912;-8.392;2023-02-11T05:57:24;125.75;;;112.90;;
64403;SDS011;50726;54.912;-8.392;2023-02-11T05:59:49;122.95;;;109.72;;
64403;SDS011;50726;54.912;-8.392;2023-02-11T06:02:15;125.65;;;112.18;;
64403;SDS011;50726;54.912;-8.392;2023-02-11T06:04:41;126.85;;;113.15;;
64403;SDS011;50726;54.912;-8.392;2023-02-11T06:07:08;133.32;;;115.93;;
64403;SDS011;50726;54.912;-8.392;2023-02-11T06:09:34;137.02;;;116.78;;
64403;SDS011;50726;54.912;-8.392;2023-02-11T06:12:01;156.30;;;116.10;;
64403;SDS011;50726;54.912;-8.392;2023-02-11T06:14:26;146.27;;;115.07;;
64403;SDS011;50726;54.912;-8.392;2023-02-11T06:16:52;141.43;;;111.38;;
64403;SDS011;50726;54.912;-8.392;2023-02-11T06:19:18;131.30;;;113.20;;
64403;SDS011;50726;54.912;-8.392;2023-02-11T06:21:43;138.27;;;117.00;;
64403;SDS011;50726;54.912;-8.392;2023-02-11T06:24:09;137.13;;;113.65;;
64403;SDS011;50726;54.912;-8.392;2023-02-11T06:26:35;128.13;;;114.93;;
64403;SDS011;50726;54.912;-8.392;2023-02-11T06:29:00;133.75;;;114.25;;
64403;SDS011;50726;54.912;-8.392;2023-02-11T06:31:27;133.57;;;119.22;;
64403;SDS011;50726;54.912;-8.392;2023-02-11T06:33:52;149.25;;;121.40;;
64403;SDS011;50726;54.912;-8.392;2023-02-11T06:36:19;134.88;;;119.28;;
64403;SDS011;50726;54.912;-8.392;2023-02-11T06:38:46;142.82;;;119.40;;
64403;SDS011;50726;54.912;-8.392;2023-02-11T06:41:13;134.43;;;119.82;;
64403;SDS011;50726;54.912;-8.392;2023-02-11T06:43:40;153.95;;;120.30;;
64403;SDS011;50726;54.912;-8.392;2023-02-11T06:46:07;145.95;;;118.57;;
64403;SDS011;50726;54.912;-8.392;2023-02-11T06:48:34;129.82;;;116.25;;
64403;SDS011;50726;54.912;-8.392;2023-02-11T06:51:01;131.07;;;116.63;;
64403;SDS011;50726;54.912;-8.392;2023-02-11T06:53:34;133.50;;;117.18;;
64403;SDS011;50726;54.912;-8.392;2023-02-11T06:56:03;131.00;;;114.13;;
64403;SDS011;50726;54.912;-8.392;2023-02-11T06:58:31;146.18;;;116.90;;
64403;SDS011;50726;54.912;-8.392;2023-02-11T07:00:57;130.45;;;115.57;;
64403;SDS011;50726;54.912;-8.392;2023-02-11T07:03:24;141.32;;;118.10;;
64403;SDS011;50726;54.912;-8.392;2023-02-11T07:05:50;132.43;;;116.25;;
64403;SDS011;50726;54.912;-8.392;2023-02-11T07:08:16;130.80;;;113.15;;
64403;SDS011;50726;54.912;-8.392;2023-02-11T07:10:41;125.00;;;109.95;;
64403;SDS011;50726;54.912;-8.392;2023-02-11T07:13:07;130.75;;;116.30;;
64403;SDS011;50726;54.912;-8.392;2023-02-11T07:15:33;130.02;;;115.72;;
64403;SDS011;50726;54.912;-8.392;2023-02-11T07:17:58;131.32;;;117.40;;
64403;SDS011;50726;54.912;-8.392;2023-02-11T07:20:24;131.65;;;117.10;;
64403;SDS011;50726;54.912;-8.392;2023-02-11T07:22:50;137.77;;;112.43;;
64403;SDS011;50726;54.912;-8.392;2023-02-11T07:25:16;128.68;;;114.65;;
64403;SDS011;50726;54.912;-8.392;2023-02-11T07:27:42;130.40;;;113.35;;
64403;SDS011;50726;54.912;-8.392;2023-02-11T07:30:07;134.07;;;117.22;;
64403;SDS011;50726;54.912;-8.392;2023-02-11T07:32:34;125.63;;;111.80;;
64403;SDS011;50726;54.912;-8.392;2023-02-11T07:34:59;132.40;;;112.35;;
64403;SDS011;50726;54.912;-8.392;2023-02-11T07:37:25;133.90;;;108.55;;
64403;SDS011;50726;54.912;-8.392;2023-02-11T07:39:51;140.98;;;103.60;;
64403;SDS011;50726;54.912;-8.392;2023-02-11T07:42:16;135.48;;;105.22;;
64403;SDS011;50726;54.912;-8.392;2023-02-11T07:44:42;139.80;;;109.47;;
64403;SDS011;50726;54.912;-8.392;2023-02-11T07:47:08;141.57;;;107.38;;
64403;SDS011;50726;54.912;-8.392;2023-02-11T07:49:33;126.43;;;108.03;;
64403;SDS011;50726;54.912;-8.392;2023-02-11T07:51:59;128.15;;;107.50;;
64403;SDS011;50726;54.912;-8.392;2023-02-11T07:54:25;122.80;;;106.55;;
64403;SDS011;50726;54.912;-8.392;2023-02-11T07:56:50;120.85;;;103.32;;
64403;SDS011;50726;54.912;-8.392;2023-02-11T07:59:16;119.30;;;103.25;;
64403;SDS011;50726;54.912;-8.392;2023-02-11T08:01:42;129.80;;;106.03;;
64403;SDS011;50726;54.912;-8.392;2023-02-11T08:04:07;135.57;;;104.10;;
64403;SDS011;50726;54.912;-8.392;2023-02-11T08:06:34;125.30;;;105.25;;
64403;SDS011;50726;54.912;-8.392;2023-02-11T08:09:05;133.27;;;105.90;;
64403;SDS011;50726;54.912;-8.392;2023-02-11T08:11:33;135.57;;;104.85;;
64403;SDS011;50726;54.912;-8.392;2023-02-11T08:13:59;131.48;;;105.60;;
64403;SDS011;50726;54.912;-8.392;2023-02-11T08:16:30;118.85;;;101.85;;
64403;SDS011;50726;54.912;-8.392;2023-02-11T08:18:58;126.05;;;107.22;;
64403;SDS011;50726;54.912;-8.392;2023-02-11T08:21:26;132.77;;;105.25;;
64403;SDS011;50726;54.912;-8.392;2023-02-11T08:23:52;126.78;;;104.85;;
64403;SDS011;50726;54.912;-8.392;2023-02-11T08:26:19;129.43;;;106.78;;
64403;SDS011;50726;54.912;-8.392;2023-02-11T08:28:48;118.78;;;105.47;;
64403;SDS011;50726;54.912;-8.392;2023-02-11T08:31:19;132.43;;;106.13;;
64403;SDS011;50726;54.912;-8.392;2023-02-11T08:33:46;129.77;;;107.68;;
64403;SDS011;50726;54.912;-8.392;2023-02-11T08:36:14;126.70;;;106.55;;
64403;SDS011;50726;54.912;-8.392;2023-02-11T08:38:42;132.02;;;110.82;;
64403;SDS011;50726;54.912;-8.392;2023-02-11T08:41:08;150.18;;;115.00;;
64403;SDS011;50726;54.912;-8.392;2023-02-11T08:43:35;135.30;;;114.57;;
64403;SDS011;50726;54.912;-8.392;2023-02-11T08:46:01;144.48;;;114.05;;
64403;SDS011;50726;54.912;-8.392;2023-02-11T08:48:28;132.50;;;113.72;;
64403;SDS011;50726;54.912;-8.392;2023-02-11T08:50:54;135.43;;;111.50;;
64403;SDS011;50726;54.912;-8.392;2023-02-11T08:53:21;132.02;;;112.25;;
64403;SDS011;50726;54.912;-8.392;2023-02-11T08:55:50;129.00;;;111.85;;
64403;SDS011;50726;54.912;-8.392;2023-02-11T08:58:17;141.25;;;108.65;;
64403;SDS011;50726;54.912;-8.392;2023-02-11T09:00:44;135.45;;;99.03;;
64403;SDS011;50726;54.912;-8.392;2023-02-11T09:03:11;126.80;;;101.65;;
64403;SDS011;50726;54.912;-8.392;2023-02-11T09:05:41;138.10;;;102.25;;
64403;SDS011;50726;54.912;-8.392;2023-02-11T09:08:08;123.53;;;100.82;;
64403;SDS011;50726;54.912;-8.392;2023-02-11T09:10:34;130.00;;;99.60;;
64403;SDS011;50726;54.912;-8.392;2023-02-11T09:13:00;129.85;;;98.82;;
64403;SDS011;50726;54.912;-8.392;2023-02-11T09:15:26;121.05;;;99.45;;
64403;SDS011;50726;54.912;-8.392;2023-02-11T09:17:52;131.80;;;98.13;;
64403;SDS011;50726;54.912;-8.392;2023-02-11T09:20:17;117.75;;;99.97;;
64403;SDS011;50726;54.912;-8.392;2023-02-11T09:22:43;121.00;;;101.80;;
64403;SDS011;50726;54.912;-8.392;2023-02-11T09:25:09;131.07;;;98.38;;
64403;SDS011;50726;54.912;-8.392;2023-02-11T09:27:35;128.55;;;100.35;;
64403;SDS011;50726;54.912;-8.392;2023-02-11T09:30:01;127.05;;;102.07;;
64403;SDS011;50726;54.912;-8.392;2023-02-11T09:32:27;125.93;;;104.10;;
64403;SDS011;50726;54.912;-8.392;2023-02-11T09:34:52;140.82;;;112.32;;
64403;SDS011;50726;54.912;-8.392;2023-02-11T09:37:18;120.97;;;108.07;;
64403;SDS011;50726;54.912;-8.392;2023-02-11T09:39:44;127.50;;;108.70;;
64403;SDS011;50726;54.912;-8.392;2023-02-11T09:44:55;132.27;;;110.60;;
64403;SDS011;50726;54.912;-8.392;2023-02-11T09:47:31;139.75;;;113.38;;
64403;SDS011;50726;54.912;-8.392;2023-02-11T09:50:10;166.30;;;115.43;;
64403;SDS011;50726;54.912;-8.392;2023-02-11T09:52:50;142.48;;;111.85;;
64403;SDS011;50726;54.912;-8.392;2023-02-11T09:55:44;160.38;;;112.80;;
64403;SDS011;50726;54.912;-8.392;2023-02-11T09:58:17;151.25;;;111.85;;
64403;SDS011;50726;54.912;-8.392;2023-02-11T10:04:00;132.25;;;108.28;;
64403;SDS011;50726;54.912;-8.392;2023-02-11T10:06:44;151.80;;;109.38;;
64403;SDS011;50726;54.912;-8.392;2023-02-11T10:22:58;131.82;;;105.70;;
64403;SDS011;50726;54.912;-8.392;2023-02-11T10:25:37;133.65;;;106.05;;
64403;SDS011;50726;54.912;-8.392;2023-02-11T10:28:16;121.72;;;108.53;;
64403;SDS011;50726;54.912;-8.392;2023-02-11T10:31:06;125.68;;;109.80;;
64403;SDS011;50726;54.912;-8.392;2023-02-11T10:33:40;124.22;;;109.78;;
64403;SDS011;50726;54.912;-8.392;2023-02-11T10:36:11;129.45;;;112.72;;
64403;SDS011;50726;54.912;-8.392;2023-02-11T10:38:38;128.70;;;113.18;;
64403;SDS011;50726;54.912;-8.392;2023-02-11T10:41:04;125.57;;;111.25;;
64403;SDS011;50726;54.912;-8.392;2023-02-11T10:43:31;131.35;;;112.57;;
64403;SDS011;50726;54.912;-8.392;2023-02-11T10:45:58;135.10;;;109.25;;
64403;SDS011;50726;54.912;-8.392;2023-02-11T10:51:21;124.65;;;111.43;;
64403;SDS011;50726;54.912;-8.392;2023-02-11T10:56:30;123.97;;;108.28;;
64403;SDS011;50726;54.912;-8.392;2023-02-11T11:01:44;123.47;;;107.53;;
64403;SDS011;50726;54.912;-8.392;2023-02-11T11:07:13;127.93;;;110.30;;
64403;SDS011;50726;54.912;-8.392;2023-02-11T11:09:55;121.35;;;108.38;;
64403;SDS011;50726;54.912;-8.392;2023-02-11T11:15:32;120.72;;;107.85;;
64403;SDS011;50726;54.912;-8.392;2023-02-11T11:18:09;126.70;;;108.88;;
64403;SDS011;50726;54.912;-8.392;2023-02-11T11:20:35;125.95;;;112.22;;
64403;SDS011;50726;54.912;-8.392;2023-02-11T11:23:18;126.95;;;113.93;;
64403;SDS011;50726;54.912;-8.392;2023-02-11T11:28:57;130.20;;;116.70;;
64403;SDS011;50726;54.912;-8.392;2023-02-11T11:31:24;131.13;;;117.75;;
64403;SDS011;50726;54.912;-8.392;2023-02-11T11:33:54;127.93;;;114.50;;
64403;SDS011;50726;54.912;-8.392;2023-02-11T11:36:24;132.55;;;118.90;;
64403;SDS011;50726;54.912;-8.392;2023-02-11T11:38:59;131.13;;;117.55;;
64403;SDS011;50726;54.912;-8.392;2023-02-11T11:41:29;131.55;;;117.60;;
64403;SDS011;50726;54.912;-8.392;2023-02-11T11:46:30;129.95;;;112.38;;
64403;SDS011;50726;54.912;-8.392;2023-02-11T11:49:21;127.03;;;113.10;;
64403;SDS011;50726;54.912;-8.392;2023-02-11T11:51:57;128.00;;;114.97;;
64403;SDS011;50726;54.912;-8.392;2023-02-11T11:54:27;131.20;;;115.45;;
64403;SDS011;50726;54.912;-8.392;2023-02-11T11:56:59;141.07;;;117.22;;
64403;SDS011;50726;54.912;-8.392;2023-02-11T11:59:29;143.30;;;116.40;;
64403;SDS011;50726;54.912;-8.392;2023-02-11T12:02:02;175.27;;;115.97;;
64403;SDS011;50726;54.912;-8.392;2023-02-11T12:05:06;167.67;;;117.50;;
64403;SDS011;50726;54.912;-8.392;2023-02-11T12:10:46;184.23;;;120.25;;
64403;SDS011;50726;54.912;-8.392;2023-02-11T12:13:19;153.63;;;120.07;;
64403;SDS011;50726;54.912;-8.392;2023-02-11T12:16:10;144.02;;;118.65;;
64403;SDS011;50726;54.912;-8.392;2023-02-11T12:24:26;137.07;;;119.43;;
64403;SDS011;50726;54.912;-8.392;2023-02-11T12:32:42;131.18;;;116.85;;
64403;SDS011;50726;54.912;-8.392;2023-02-11T12:37:54;152.70;;;119.40;;
64403;SDS011;50726;54.912;-8.392;2023-02-11T12:40:39;133.45;;;116.93;;
64403;SDS011;50726;54.912;-8.392;2023-02-11T12:43:23;130.77;;;114.28;;
64403;SDS011;50726;54.912;-8.392;2023-02-11T12:46:26;127.47;;;108.35;;
64403;SDS011;50726;54.912;-8.392;2023-02-11T12:49:10;129.77;;;116.30;;
64403;SDS011;50726;54.912;-8.392;2023-02-11T12:51:58;133.23;;;115.95;;
64403;SDS011;50726;54.912;-8.392;2023-02-11T12:54:54;144.73;;;117.65;;
64403;SDS011;50726;54.912;-8.392;2023-02-11T12:57:26;139.73;;;120.32;;
64403;SDS011;50726;54.912;-8.392;2023-02-11T12:59:57;141.02;;;119.68;;
64403;SDS011;50726;54.912;-8.392;2023-02-11T13:02:32;143.30;;;118.50;;
64403;SDS011;50726;54.912;-8.392;2023-02-11T13:05:01;140.43;;;125.25;;
64403;SDS011;50726;54.912;-8.392;2023-02-11T13:07:44;139.13;;;121.13;;
64403;SDS011;50726;54.912;-8.392;2023-02-11T13:10:29;139.43;;;124.35;;
64403;SDS011;50726;54.912;-8.392;2023-02-11T13:12:56;138.88;;;124.90;;
64403;SDS011;50726;54.912;-8.392;2023-02-11T13:15:50;139.75;;;125.45;;
64403;SDS011;50726;54.912;-8.392;2023-02-11T13:18:29;140.73;;;126.55;;
64403;SDS011;50726;54.912;-8.392;2023-02-11T13:21:26;137.43;;;122.20;;
64403;SDS011;50726;54.912;-8.392;2023-02-11T13:24:38;140.48;;;126.32;;
64403;SDS011;50726;54.912;-8.392;2023-02-11T13:29:38;141.05;;;126.70;;
64403;SDS011;50726;54.912;-8.392;2023-02-11T13:32:10;142.45;;;127.78;;
64403;SDS011;50726;54.912;-8.392;2023-02-11T13:37:25;142.57;;;128.02;;
64403;SDS011;50726;54.912;-8.392;2023-02-11T13:42:48;144.43;;;129.48;;
64403;SDS011;50726;54.912;-8.392;2023-02-11T13:45:21;141.48;;;126.38;;
64403;SDS011;50726;54.912;-8.392;2023-02-11T13:47:59;144.02;;;129.10;;
64403;SDS011;50726;54.912;-8.392;2023-02-11T13:50:29;145.00;;;130.50;;
64403;SDS011;50726;54.912;-8.392;2023-02-11T13:53:00;141.90;;;127.75;;
64403;SDS011;50726;54.912;-8.392;2023-02-11T13:55:27;147.32;;;132.00;;
64403;SDS011;50726;54.912;-8.392;2023-02-11T14:03:43;147.70;;;131.75;;
64403;SDS011;50726;54.912;-8.392;2023-02-11T14:09:04;144.85;;;129.80;;
64403;SDS011;50726;54.912;-8.392;2023-02-11T14:19:34;154.02;;;138.35;;
64403;SDS011;50726;54.912;-8.392;2023-02-11T14:22:02;151.65;;;136.63;;
64403;SDS011;50726;54.912;-8.392;2023-02-11T14:27:06;156.43;;;141.05;;
64403;SDS011;50726;54.912;-8.392;2023-02-11T14:29:48;153.93;;;138.48;;
64403;SDS011;50726;54.912;-8.392;2023-02-11T14:42:55;157.20;;;141.15;;
64403;SDS011;50726;54.912;-8.392;2023-02-11T14:45:26;157.20;;;141.80;;
64403;SDS011;50726;54.912;-8.392;2023-02-11T14:48:02;158.40;;;142.52;;
64403;SDS011;50726;54.912;-8.392;2023-02-11T14:50:57;156.70;;;140.98;;
64403;SDS011;50726;54.912;-8.392;2023-02-11T14:53:29;154.15;;;138.20;;
64403;SDS011;50726;54.912;-8.392;2023-02-11T14:55:57;156.73;;;140.55;;
64403;SDS011;50726;54.912;-8.392;2023-02-11T14:58:27;152.27;;;134.98;;
64403;SDS011;50726;54.912;-8.392;2023-02-11T15:00:56;156.10;;;140.38;;
64403;SDS011;50726;54.912;-8.392;2023-02-11T15:03:40;156.40;;;140.43;;
64403;SDS011;50726;54.912;-8.392;2023-02-11T15:06:17;159.52;;;143.50;;
64403;SDS011;50726;54.912;-8.392;2023-02-11T15:08:47;156.63;;;140.57;;
64403;SDS011;50726;54.912;-8.392;2023-02-11T15:11:14;151.13;;;135.45;;
64403;SDS011;50726;54.912;-8.392;2023-02-11T15:13:42;154.20;;;139.02;;
64403;SDS011;50726;54.912;-8.392;2023-02-11T15:16:24;152.65;;;137.68;;
64403;SDS011;50726;54.912;-8.392;2023-02-11T15:18:55;156.32;;;140.55;;
64403;SDS011;50726;54.912;-8.392;2023-02-11T15:21:27;156.20;;;140.80;;
64403;SDS011;50726;54.912;-8.392;2023-02-11T15:23:56;152.57;;;136.73;;
64403;SDS011;50726;54.912;-8.392;2023-02-11T15:26:55;154.98;;;138.30;;
64403;SDS011;50726;54.912;-8.392;2023-02-11T15:29:39;160.07;;;142.55;;
64403;SDS011;50726;54.912;-8.392;2023-02-11T15:32:17;159.45;;;143.90;;
64403;SDS011;50726;54.912;-8.392;2023-02-11T15:34:44;156.07;;;139.63;;
64403;SDS011;50726;54.912;-8.392;2023-02-11T15:37:17;157.25;;;141.50;;
64403;SDS011;50726;54.912;-8.392;2023-02-11T15:39:49;159.85;;;142.93;;
64403;SDS011;50726;54.912;-8.392;2023-02-11T15:44:48;168.88;;;145.13;;
64403;SDS011;50726;54.912;-8.392;2023-02-11T15:47:31;167.32;;;148.40;;
64403;SDS011;50726;54.912;-8.392;2023-02-11T15:49:57;194.70;;;147.18;;
64403;SDS011;50726;54.912;-8.392;2023-02-11T15:52:24;200.52;;;155.57;;
64403;SDS011;50726;54.912;-8.392;2023-02-11T15:54:52;208.63;;;159.07;;
64403;SDS011;50726;54.912;-8.392;2023-02-11T15:57:23;200.52;;;158.75;;
64403;SDS011;50726;54.912;-8.392;2023-02-11T15:59:50;192.35;;;153.50;;
64403;SDS011;50726;54.912;-8.392;2023-02-11T16:02:39;202.65;;;151.85;;
64403;SDS011;50726;54.912;-8.392;2023-02-11T16:05:22;214.68;;;153.70;;
64403;SDS011;50726;54.912;-8.392;2023-02-11T16:07:54;192.00;;;156.95;;
64403;SDS011;50726;54.912;-8.392;2023-02-11T16:10:31;208.70;;;160.43;;
64403;SDS011;50726;54.912;-8.392;2023-02-11T16:18:33;205.55;;;160.20;;
64403;SDS011;50726;54.912;-8.392;2023-02-11T16:21:02;177.05;;;155.50;;
64403;SDS011;50726;54.912;-8.392;2023-02-11T16:23:33;180.00;;;159.00;;
64403;SDS011;50726;54.912;-8.392;2023-02-11T16:26:03;176.95;;;157.70;;
64403;SDS011;50726;54.912;-8.392;2023-02-11T16:28:36;166.70;;;149.25;;
64403;SDS011;50726;54.912;-8.392;2023-02-11T16:31:02;171.23;;;153.45;;
64403;SDS011;50726;54.912;-8.392;2023-02-11T16:33:28;172.38;;;154.07;;